sensor_id;sensor_type;location;lat;lon;timestamp;temperature;humidity
58983;DHT22;44771;49.982;8.560;2023-04-06T00:03:47;-2.10;99.90
58983;DHT22;44771;49.982;8.560;2023-04-06T00:08:49;-2.20;99.90
58983;DHT22;44771;49.982;8.560;2023-04-06T00:13:53;-2.20;99.90
58983;DHT22;44771;49.982;8.560;2023-04-06T00:18:55;-2.30;99.90
58983;DHT22;44771;49.982;8.560;2023-04-06T00:23:56;-2.30;99.90
58983;DHT22;44771;49.982;8.560;2023-04-06T00:28:59;-2.20;99.90
58983;DHT22;44771;49.982;8.560;2023-04-06T00:34:01;-2.20;99.90
58983;DHT22;44771;49.982;8.560;2023-04-06T00:39:03;-2.30;99.90
58983;DHT22;44771;49.982;8.560;2023-04-06T00:44:06;-2.40;99.90
58983;DHT22;44771;49.982;8.560;2023-04-06T00:49:08;-2.50;99.90
58983;DHT22;44771;49.982;8.560;2023-04-06T00:54:10;-2.60;99.90
58983;DHT22;44771;49.982;8.560;2023-04-06T00:59:13;-2.70;99.90
58983;DHT22;44771;49.982;8.560;2023-04-06T01:04:15;-2.70;99.90
58983;DHT22;44771;49.982;8.560;2023-04-06T01:09:17;-2.70;99.90
58983;DHT22;44771;49.982;8.560;2023-04-06T01:14:20;-2.80;99.90
58983;DHT22;44771;49.982;8.560;2023-04-06T01:19:22;-2.80;99.90
58983;DHT22;44771;49.982;8.560;2023-04-06T01:24:26;-2.90;99.90
58983;DHT22;44771;49.982;8.560;2023-04-06T01:29:27;-3.00;99.90
58983;DHT22;44771;49.982;8.560;2023-04-06T01:34:29;-3.10;99.90
58983;DHT22;44771;49.982;8.560;2023-04-06T01:39:32;-3.20;99.90
58983;DHT22;44771;49.982;8.560;2023-04-06T01:44:34;-3.30;99.90
58983;DHT22;44771;49.982;8.560;2023-04-06T01:49:36;-3.30;99.90
58983;DHT22;44771;49.982;8.560;2023-04-06T01:54:39;-3.50;99.90
58983;DHT22;44771;49.982;8.560;2023-04-06T01:59:41;-3.60;99.90
58983;DHT22;44771;49.982;8.560;2023-04-06T02:04:43;-3.60;99.90
58983;DHT22;44771;49.982;8.560;2023-04-06T02:09:46;-3.50;99.90
58983;DHT22;44771;49.982;8.560;2023-04-06T02:14:48;-3.30;99.90
58983;DHT22;44771;49.982;8.560;2023-04-06T02:19:50;-3.20;99.90
58983;DHT22;44771;49.982;8.560;2023-04-06T02:24:53;-3.40;99.90
58983;DHT22;44771;49.982;8.560;2023-04-06T02:29:55;-3.50;99.90
58983;DHT22;44771;49.982;8.560;2023-04-06T02:34:57;-3.70;99.90
58983;DHT22;44771;49.982;8.560;2023-04-06T02:40:00;-3.70;99.90
58983;DHT22;44771;49.982;8.560;2023-04-06T02:45:02;-3.80;99.90
58983;DHT22;44771;49.982;8.560;2023-04-06T02:50:05;-3.80;99.90
58983;DHT22;44771;49.982;8.560;2023-04-06T02:55:08;-3.80;99.90
58983;DHT22;44771;49.982;8.560;2023-04-06T03:00:11;-3.70;99.90
58983;DHT22;44771;49.982;8.560;2023-04-06T03:05:13;-3.80;99.90
58983;DHT22;44771;49.982;8.560;2023-04-06T03:10:17;-3.80;99.90
58983;DHT22;44771;49.982;8.560;2023-04-06T03:15:18;-3.90;99.90
58983;DHT22;44771;49.982;8.560;2023-04-06T03:20:20;-4.10;99.90
58983;DHT22;44771;49.982;8.560;2023-04-06T03:25:23;-4.20;99.90
58983;DHT22;44771;49.982;8.560;2023-04-06T03:30:25;-4.20;99.90
58983;DHT22;44771;49.982;8.560;2023-04-06T03:35:27;-4.20;99.90
58983;DHT22;44771;49.982;8.560;2023-04-06T03:40:30;-4.20;99.90
58983;DHT22;44771;49.982;8.560;2023-04-06T03:45:32;-3.90;99.90
58983;DHT22;44771;49.982;8.560;2023-04-06T03:50:34;-4.00;99.90
58983;DHT22;44771;49.982;8.560;2023-04-06T03:55:37;-4.10;99.90
58983;DHT22;44771;49.982;8.560;2023-04-06T04:00:39;-4.20;99.90
58983;DHT22;44771;49.982;8.560;2023-04-06T04:05:40;-4.30;99.90
58983;DHT22;44771;49.982;8.560;2023-04-06T04:10:44;-4.40;99.90
58983;DHT22;44771;49.982;8.560;2023-04-06T04:15:45;-4.50;99.90
58983;DHT22;44771;49.982;8.560;2023-04-06T04:20:47;-4.50;99.90
58983;DHT22;44771;49.982;8.560;2023-04-06T04:25:50;-4.60;99.90
58983;DHT22;44771;49.982;8.560;2023-04-06T04:30:52;-4.60;99.90
58983;DHT22;44771;49.982;8.560;2023-04-06T04:35:54;-4.60;99.90
58983;DHT22;44771;49.982;8.560;2023-04-06T04:40:57;-4.70;99.90
58983;DHT22;44771;49.982;8.560;2023-04-06T04:45:58;-4.60;99.90
58983;DHT22;44771;49.982;8.560;2023-04-06T04:51:01;-4.70;99.90
58983;DHT22;44771;49.982;8.560;2023-04-06T04:56:04;-4.70;99.90
58983;DHT22;44771;49.982;8.560;2023-04-06T05:01:06;-4.70;99.90
58983;DHT22;44771;49.982;8.560;2023-04-06T05:06:08;-4.60;99.90
58983;DHT22;44771;49.982;8.560;2023-04-06T05:11:14;-4.50;99.90
58983;DHT22;44771;49.982;8.560;2023-04-06T05:16:16;-4.60;99.90
58983;DHT22;44771;49.982;8.560;2023-04-06T05:21:19;-4.60;99.90
58983;DHT22;44771;49.982;8.560;2023-04-06T05:26:22;-4.40;99.90
58983;DHT22;44771;49.982;8.560;2023-04-06T05:31:24;-4.30;99.90
58983;DHT22;44771;49.982;8.560;2023-04-06T05:36:25;-4.20;99.90
58983;DHT22;44771;49.982;8.560;2023-04-06T05:41:29;-4.10;99.90
58983;DHT22;44771;49.982;8.560;2023-04-06T05:46:31;-3.90;99.90
58983;DHT22;44771;49.982;8.560;2023-04-06T05:51:33;-3.80;99.90
58983;DHT22;44771;49.982;8.560;2023-04-06T05:56:36;-3.70;99.90
58983;DHT22;44771;49.982;8.560;2023-04-06T06:01:38;-3.40;99.90
58983;DHT22;44771;49.982;8.560;2023-04-06T06:06:40;-3.30;99.90
58983;DHT22;44771;49.982;8.560;2023-04-06T06:11:43;-3.00;99.90
58983;DHT22;44771;49.982;8.560;2023-04-06T06:16:45;-2.80;99.90
58983;DHT22;44771;49.982;8.560;2023-04-06T06:21:46;-2.50;99.90
58983;DHT22;44771;49.982;8.560;2023-04-06T06:26:50;-2.30;99.90
58983;DHT22;44771;49.982;8.560;2023-04-06T06:31:51;-1.90;99.90
58983;DHT22;44771;49.982;8.560;2023-04-06T06:36:53;-1.60;99.90
58983;DHT22;44771;49.982;8.560;2023-04-06T06:41:56;-1.30;99.90
58983;DHT22;44771;49.982;8.560;2023-04-06T06:46:58;-1.10;99.90
58983;DHT22;44771;49.982;8.560;2023-04-06T06:52:00;-0.80;99.90
58983;DHT22;44771;49.982;8.560;2023-04-06T06:57:03;-0.50;99.90
58983;DHT22;44771;49.982;8.560;2023-04-06T07:02:05;-0.30;99.90
58983;DHT22;44771;49.982;8.560;2023-04-06T07:07:07;0.00;99.90
58983;DHT22;44771;49.982;8.560;2023-04-06T07:12:25;0.30;99.90
58983;DHT22;44771;49.982;8.560;2023-04-06T07:17:27;0.70;99.90
58983;DHT22;44771;49.982;8.560;2023-04-06T07:22:29;0.90;99.90
58983;DHT22;44771;49.982;8.560;2023-04-06T07:27:32;1.30;99.90
58983;DHT22;44771;49.982;8.560;2023-04-06T07:32:34;1.60;99.90
58983;DHT22;44771;49.982;8.560;2023-04-06T07:37:36;1.80;99.90
58983;DHT22;44771;49.982;8.560;2023-04-06T07:42:39;2.10;99.90
58983;DHT22;44771;49.982;8.560;2023-04-06T07:47:44;2.40;99.90
58983;DHT22;44771;49.982;8.560;2023-04-06T07:52:53;2.70;99.90
58983;DHT22;44771;49.982;8.560;2023-04-06T07:58:05;3.10;99.90
58983;DHT22;44771;49.982;8.560;2023-04-06T08:03:07;3.60;99.90
58983;DHT22;44771;49.982;8.560;2023-04-06T08:08:09;4.00;99.90
58983;DHT22;44771;49.982;8.560;2023-04-06T08:13:12;4.30;99.90
58983;DHT22;44771;49.982;8.560;2023-04-06T08:18:14;4.70;99.90
58983;DHT22;44771;49.982;8.560;2023-04-06T08:23:16;5.00;99.50
58983;DHT22;44771;49.982;8.560;2023-04-06T08:28:20;5.40;98.10
58983;DHT22;44771;49.982;8.560;2023-04-06T08:33:22;5.90;97.10
58983;DHT22;44771;49.982;8.560;2023-04-06T08:38:23;6.30;96.10
58983;DHT22;44771;49.982;8.560;2023-04-06T08:43:27;6.90;94.00
58983;DHT22;44771;49.982;8.560;2023-04-06T08:48:30;7.20;92.30
58983;DHT22;44771;49.982;8.560;2023-04-06T08:53:34;7.70;90.80
58983;DHT22;44771;49.982;8.560;2023-04-06T08:58:39;8.30;90.70
58983;DHT22;44771;49.982;8.560;2023-04-06T09:03:42;8.80;84.60
58983;DHT22;44771;49.982;8.560;2023-04-06T09:08:45;9.30;79.60
58983;DHT22;44771;49.982;8.560;2023-04-06T09:13:50;10.00;76.50
58983;DHT22;44771;49.982;8.560;2023-04-06T09:18:52;10.30;74.60
58983;DHT22;44771;49.982;8.560;2023-04-06T09:23:58;10.50;72.40
58983;DHT22;44771;49.982;8.560;2023-04-06T09:29:02;11.00;70.00
58983;DHT22;44771;49.982;8.560;2023-04-06T09:34:04;11.40;66.80
58983;DHT22;44771;49.982;8.560;2023-04-06T09:39:06;11.70;68.00
58983;DHT22;44771;49.982;8.560;2023-04-06T09:44:10;12.00;64.10
58983;DHT22;44771;49.982;8.560;2023-04-06T09:49:13;12.50;59.80
58983;DHT22;44771;49.982;8.560;2023-04-06T09:54:19;12.80;59.30
58983;DHT22;44771;49.982;8.560;2023-04-06T09:59:29;13.00;58.00
58983;DHT22;44771;49.982;8.560;2023-04-06T10:04:40;13.40;58.50
58983;DHT22;44771;49.982;8.560;2023-04-06T10:09:45;13.80;56.60
58983;DHT22;44771;49.982;8.560;2023-04-06T10:14:49;13.80;56.10
58983;DHT22;44771;49.982;8.560;2023-04-06T10:19:55;13.70;57.00
58983;DHT22;44771;49.982;8.560;2023-04-06T10:25:01;13.60;56.10
58983;DHT22;44771;49.982;8.560;2023-04-06T10:30:06;13.60;57.60
58983;DHT22;44771;49.982;8.560;2023-04-06T10:35:09;14.00;55.60
58983;DHT22;44771;49.982;8.560;2023-04-06T10:40:18;14.40;53.40
58983;DHT22;44771;49.982;8.560;2023-04-06T10:45:23;14.90;53.20
58983;DHT22;44771;49.982;8.560;2023-04-06T10:50:25;14.90;52.20
58983;DHT22;44771;49.982;8.560;2023-04-06T10:55:27;15.10;52.50
58983;DHT22;44771;49.982;8.560;2023-04-06T11:00:30;15.70;50.10
58983;DHT22;44771;49.982;8.560;2023-04-06T11:05:51;16.10;46.30
58983;DHT22;44771;49.982;8.560;2023-04-06T11:11:04;15.90;49.40
58983;DHT22;44771;49.982;8.560;2023-04-06T11:16:11;16.10;45.60
58983;DHT22;44771;49.982;8.560;2023-04-06T11:21:13;15.50;47.30
58983;DHT22;44771;49.982;8.560;2023-04-06T11:26:15;15.40;47.60
58983;DHT22;44771;49.982;8.560;2023-04-06T11:31:18;15.80;47.70
58983;DHT22;44771;49.982;8.560;2023-04-06T11:36:20;15.30;48.20
58983;DHT22;44771;49.982;8.560;2023-04-06T11:41:23;15.20;48.20
58983;DHT22;44771;49.982;8.560;2023-04-06T11:46:26;15.30;47.50
58983;DHT22;44771;49.982;8.560;2023-04-06T11:51:28;15.30;49.10
58983;DHT22;44771;49.982;8.560;2023-04-06T11:56:30;15.20;46.80
58983;DHT22;44771;49.982;8.560;2023-04-06T12:01:33;15.40;46.90
58983;DHT22;44771;49.982;8.560;2023-04-06T12:06:40;15.50;45.90
58983;DHT22;44771;49.982;8.560;2023-04-06T12:11:42;15.90;46.30
58983;DHT22;44771;49.982;8.560;2023-04-06T12:16:45;15.70;45.30
58983;DHT22;44771;49.982;8.560;2023-04-06T12:21:47;16.00;47.90
58983;DHT22;44771;49.982;8.560;2023-04-06T12:26:49;16.30;46.20
58983;DHT22;44771;49.982;8.560;2023-04-06T12:32:01;16.30;46.10
58983;DHT22;44771;49.982;8.560;2023-04-06T12:37:03;15.90;46.10
58983;DHT22;44771;49.982;8.560;2023-04-06T12:42:14;15.50;45.50
58983;DHT22;44771;49.982;8.560;2023-04-06T12:47:17;15.20;46.80
58983;DHT22;44771;49.982;8.560;2023-04-06T12:52:19;15.30;46.90
58983;DHT22;44771;49.982;8.560;2023-04-06T12:57:21;15.20;45.50
58983;DHT22;44771;49.982;8.560;2023-04-06T13:02:24;15.70;47.20
58983;DHT22;44771;49.982;8.560;2023-04-06T13:07:26;16.30;45.10
58983;DHT22;44771;49.982;8.560;2023-04-06T13:12:28;16.40;44.40
58983;DHT22;44771;49.982;8.560;2023-04-06T13:17:31;16.00;45.00
58983;DHT22;44771;49.982;8.560;2023-04-06T13:22:33;15.70;44.80
58983;DHT22;44771;49.982;8.560;2023-04-06T13:27:36;15.40;44.90
58983;DHT22;44771;49.982;8.560;2023-04-06T13:32:39;15.50;45.50
58983;DHT22;44771;49.982;8.560;2023-04-06T13:37:41;15.80;44.60
58983;DHT22;44771;49.982;8.560;2023-04-06T13:42:43;15.90;44.40
58983;DHT22;44771;49.982;8.560;2023-04-06T13:47:46;15.70;44.80
58983;DHT22;44771;49.982;8.560;2023-04-06T13:52:48;15.80;44.30
58983;DHT22;44771;49.982;8.560;2023-04-06T13:57:50;15.60;44.70
58983;DHT22;44771;49.982;8.560;2023-04-06T14:02:54;15.50;44.90
58983;DHT22;44771;49.982;8.560;2023-04-06T14:07:56;15.50;45.40
58983;DHT22;44771;49.982;8.560;2023-04-06T14:12:58;15.40;45.60
58983;DHT22;44771;49.982;8.560;2023-04-06T14:18:01;15.20;44.90
58983;DHT22;44771;49.982;8.560;2023-04-06T14:23:03;15.00;44.70
58983;DHT22;44771;49.982;8.560;2023-04-06T14:28:05;14.70;46.20
58983;DHT22;44771;49.982;8.560;2023-04-06T14:33:08;14.50;46.10
58983;DHT22;44771;49.982;8.560;2023-04-06T14:38:10;14.40;45.90
58983;DHT22;44771;49.982;8.560;2023-04-06T14:43:12;14.30;46.10
58983;DHT22;44771;49.982;8.560;2023-04-06T14:48:15;14.20;46.40
58983;DHT22;44771;49.982;8.560;2023-04-06T14:53:17;14.30;46.50
58983;DHT22;44771;49.982;8.560;2023-04-06T14:58:19;14.30;46.70
58983;DHT22;44771;49.982;8.560;2023-04-06T15:03:22;14.30;46.10
58983;DHT22;44771;49.982;8.560;2023-04-06T15:08:24;14.30;47.10
58983;DHT22;44771;49.982;8.560;2023-04-06T15:13:26;14.30;45.50
58983;DHT22;44771;49.982;8.560;2023-04-06T15:18:29;14.30;46.40
58983;DHT22;44771;49.982;8.560;2023-04-06T15:23:31;14.30;47.10
58983;DHT22;44771;49.982;8.560;2023-04-06T15:28:33;14.20;47.10
58983;DHT22;44771;49.982;8.560;2023-04-06T15:33:36;14.10;47.30
58983;DHT22;44771;49.982;8.560;2023-04-06T15:38:38;13.90;47.90
58983;DHT22;44771;49.982;8.560;2023-04-06T15:43:40;13.80;46.10
58983;DHT22;44771;49.982;8.560;2023-04-06T15:48:43;13.20;47.00
58983;DHT22;44771;49.982;8.560;2023-04-06T15:53:45;13.20;48.30
58983;DHT22;44771;49.982;8.560;2023-04-06T15:58:47;13.10;48.50
58983;DHT22;44771;49.982;8.560;2023-04-06T16:03:50;12.90;49.20
58983;DHT22;44771;49.982;8.560;2023-04-06T16:08:52;12.80;49.70
58983;DHT22;44771;49.982;8.560;2023-04-06T16:13:54;12.70;51.10
58983;DHT22;44771;49.982;8.560;2023-04-06T16:18:57;12.70;49.30
58983;DHT22;44771;49.982;8.560;2023-04-06T16:23:59;12.70;49.10
58983;DHT22;44771;49.982;8.560;2023-04-06T16:29:01;12.60;50.00
58983;DHT22;44771;49.982;8.560;2023-04-06T16:34:04;12.60;49.90
58983;DHT22;44771;49.982;8.560;2023-04-06T16:39:06;12.60;50.50
58983;DHT22;44771;49.982;8.560;2023-04-06T16:44:08;12.50;51.10
58983;DHT22;44771;49.982;8.560;2023-04-06T16:49:11;12.20;52.20
58983;DHT22;44771;49.982;8.560;2023-04-06T16:54:13;11.90;53.70
58983;DHT22;44771;49.982;8.560;2023-04-06T16:59:15;11.80;53.60
58983;DHT22;44771;49.982;8.560;2023-04-06T17:04:19;11.90;53.30
58983;DHT22;44771;49.982;8.560;2023-04-06T17:09:22;11.70;54.20
58983;DHT22;44771;49.982;8.560;2023-04-06T17:14:25;11.60;54.00
58983;DHT22;44771;49.982;8.560;2023-04-06T17:19:29;11.60;55.60
58983;DHT22;44771;49.982;8.560;2023-04-06T17:24:31;11.50;56.00
58983;DHT22;44771;49.982;8.560;2023-04-06T17:29:34;11.40;57.40
58983;DHT22;44771;49.982;8.560;2023-04-06T17:34:38;11.40;57.50
58983;DHT22;44771;49.982;8.560;2023-04-06T17:39:39;11.20;58.60
58983;DHT22;44771;49.982;8.560;2023-04-06T17:44:41;11.20;59.80
58983;DHT22;44771;49.982;8.560;2023-04-06T17:49:44;11.10;60.20
58983;DHT22;44771;49.982;8.560;2023-04-06T17:54:48;11.00;61.30
58983;DHT22;44771;49.982;8.560;2023-04-06T17:59:50;10.90;61.70
58983;DHT22;44771;49.982;8.560;2023-04-06T18:04:54;10.90;63.10
58983;DHT22;44771;49.982;8.560;2023-04-06T18:09:56;10.80;64.20
58983;DHT22;44771;49.982;8.560;2023-04-06T18:14:58;10.50;66.10
58983;DHT22;44771;49.982;8.560;2023-04-06T18:20:01;10.50;65.50
58983;DHT22;44771;49.982;8.560;2023-04-06T18:25:03;10.50;67.50
58983;DHT22;44771;49.982;8.560;2023-04-06T18:30:06;10.40;69.40
58983;DHT22;44771;49.982;8.560;2023-04-06T18:35:10;10.30;72.00
58983;DHT22;44771;49.982;8.560;2023-04-06T18:40:29;10.10;76.40
58983;DHT22;44771;49.982;8.560;2023-04-06T18:45:32;9.80;83.00
58983;DHT22;44771;49.982;8.560;2023-04-06T18:50:35;9.60;91.70
58983;DHT22;44771;49.982;8.560;2023-04-06T18:55:37;9.40;95.90
58983;DHT22;44771;49.982;8.560;2023-04-06T19:00:39;9.20;98.90
58983;DHT22;44771;49.982;8.560;2023-04-06T19:05:42;9.00;99.90
58983;DHT22;44771;49.982;8.560;2023-04-06T19:10:44;8.80;99.90
58983;DHT22;44771;49.982;8.560;2023-04-06T19:15:46;8.60;99.90
58983;DHT22;44771;49.982;8.560;2023-04-06T19:20:49;8.40;99.90
58983;DHT22;44771;49.982;8.560;2023-04-06T19:25:51;8.50;99.90
58983;DHT22;44771;49.982;8.560;2023-04-06T19:30:54;8.40;99.90
58983;DHT22;44771;49.982;8.560;2023-04-06T19:35:58;8.20;99.90
58983;DHT22;44771;49.982;8.560;2023-04-06T19:41:00;8.00;99.90
58983;DHT22;44771;49.982;8.560;2023-04-06T19:46:02;7.80;99.90
58983;DHT22;44771;49.982;8.560;2023-04-06T19:51:05;7.60;99.90
58983;DHT22;44771;49.982;8.560;2023-04-06T19:56:10;7.70;99.90
58983;DHT22;44771;49.982;8.560;2023-04-06T20:01:12;7.50;99.90
58983;DHT22;44771;49.982;8.560;2023-04-06T20:06:15;7.40;99.90
58983;DHT22;44771;49.982;8.560;2023-04-06T20:11:17;7.30;99.90
58983;DHT22;44771;49.982;8.560;2023-04-06T20:16:19;7.30;99.90
58983;DHT22;44771;49.982;8.560;2023-04-06T20:21:22;7.10;99.90
58983;DHT22;44771;49.982;8.560;2023-04-06T20:26:24;7.10;99.90
58983;DHT22;44771;49.982;8.560;2023-04-06T20:31:26;7.10;99.90
58983;DHT22;44771;49.982;8.560;2023-04-06T20:36:30;7.10;99.90
58983;DHT22;44771;49.982;8.560;2023-04-06T20:41:32;7.00;99.90
58983;DHT22;44771;49.982;8.560;2023-04-06T20:46:34;7.00;99.90
58983;DHT22;44771;49.982;8.560;2023-04-06T20:51:37;6.90;99.90
58983;DHT22;44771;49.982;8.560;2023-04-06T20:56:39;6.80;99.90
58983;DHT22;44771;49.982;8.560;2023-04-06T21:01:42;6.80;99.90
58983;DHT22;44771;49.982;8.560;2023-04-06T21:06:45;6.70;99.90
58983;DHT22;44771;49.982;8.560;2023-04-06T21:11:46;6.70;99.90
58983;DHT22;44771;49.982;8.560;2023-04-06T21:16:48;6.70;99.90
58983;DHT22;44771;49.982;8.560;2023-04-06T21:21:52;6.70;99.90
58983;DHT22;44771;49.982;8.560;2023-04-06T21:26:54;6.60;99.90
58983;DHT22;44771;49.982;8.560;2023-04-06T21:31:55;6.70;99.90
58983;DHT22;44771;49.982;8.560;2023-04-06T21:36:59;6.60;99.90
58983;DHT22;44771;49.982;8.560;2023-04-06T21:42:00;6.60;99.90
58983;DHT22;44771;49.982;8.560;2023-04-06T21:47:02;6.50;99.90
58983;DHT22;44771;49.982;8.560;2023-04-06T21:52:05;6.50;99.90
58983;DHT22;44771;49.982;8.560;2023-04-06T21:57:07;6.50;99.90
58983;DHT22;44771;49.982;8.560;2023-04-06T22:02:09;6.50;99.90
58983;DHT22;44771;49.982;8.560;2023-04-06T22:07:12;6.50;99.90
58983;DHT22;44771;49.982;8.560;2023-04-06T22:12:14;6.60;99.90
58983;DHT22;44771;49.982;8.560;2023-04-06T22:17:16;6.60;99.90
58983;DHT22;44771;49.982;8.560;2023-04-06T22:22:19;6.50;99.90
58983;DHT22;44771;49.982;8.560;2023-04-06T22:27:23;6.40;99.90
58983;DHT22;44771;49.982;8.560;2023-04-06T22:32:25;6.40;99.90
58983;DHT22;44771;49.982;8.560;2023-04-06T22:37:28;6.40;99.90
58983;DHT22;44771;49.982;8.560;2023-04-06T22:42:30;6.40;99.90
58983;DHT22;44771;49.982;8.560;2023-04-06T22:47:32;6.40;99.90
58983;DHT22;44771;49.982;8.560;2023-04-06T22:52:36;6.30;99.90
58983;DHT22;44771;49.982;8.560;2023-04-06T22:57:38;6.40;99.90
58983;DHT22;44771;49.982;8.560;2023-04-06T23:02:43;6.30;99.90
58983;DHT22;44771;49.982;8.560;2023-04-06T23:07:46;6.30;99.90
58983;DHT22;44771;49.982;8.560;2023-04-06T23:12:48;6.40;99.90
58983;DHT22;44771;49.982;8.560;2023-04-06T23:17:50;6.30;99.90
58983;DHT22;44771;49.982;8.560;2023-04-06T23:22:53;6.20;99.90
58983;DHT22;44771;49.982;8.560;2023-04-06T23:27:54;6.20;99.90
58983;DHT22;44771;49.982;8.560;2023-04-06T23:32:56;6.20;99.90
58983;DHT22;44771;49.982;8.560;2023-04-06T23:38:01;6.20;99.90
58983;DHT22;44771;49.982;8.560;2023-04-06T23:43:03;6.20;99.90
58983;DHT22;44771;49.982;8.560;2023-04-06T23:48:05;6.20;99.90
58983;DHT22;44771;49.982;8.560;2023-04-06T23:53:08;6.20;99.90
58983;DHT22;44771;49.982;8.560;2023-04-06T23:58:10;6.10;99.90
